Time;durP1;ratioP1;P1;durP2;ratioP2;P2;SDS_P1;SDS_P2;PMS_P1;PMS_P2;Temp;Humidity;BMP_temperature;BMP_pressure;BME280_temperature;BME280_humidity;BME280_pressure;Samples;Min_cycle;Max_cycle;Signal;HPM_P1;HPM_P2
2023/01/10 00:00:14;;;;;;;8.60;2.72;;;;;;;3.66;100.00;101080.47;5067809;28;20020;-64
2023/01/10 00:02:39;;;;;;;10.90;3.40;;;;;;;3.64;100.00;101087.16;5067879;28;20361;-64
2023/01/10 00:05:05;;;;;;;5.27;2.97;;;;;;;3.63;100.00;101098.22;5067683;28;20081;-63
2023/01/10 00:07:30;;;;;;;12.80;3.27;;;;;;;3.60;100.00;101092.09;5067060;28;20039;-64
2023/01/10 00:09:56;;;;;;;8.90;3.90;;;;;;;3.59;100.00;101108.28;5067805;28;20025;-64
2023/01/10 00:15:05;;;;;;;5.60;3.10;;;;;;;3.58;100.00;101103.91;5067334;28;20065;-64
2023/01/10 00:17:31;;;;;;;13.80;3.80;;;;;;;3.55;100.00;101113.97;5067408;28;20032;-64
2023/01/10 00:19:56;;;;;;;10.87;3.67;;;;;;;3.54;100.00;101117.34;5067699;28;20396;-64
2023/01/10 00:22:23;;;;;;;10.57;3.13;;;;;;;3.54;100.00;101114.78;5067473;28;20028;-64
2023/01/10 00:24:49;;;;;;;11.27;3.15;;;;;;;3.53;100.00;101128.38;5066843;28;20032;-63
2023/01/10 00:27:19;;;;;;;9.70;2.90;;;;;;;3.55;100.00;101138.72;5067318;28;20081;-64
2023/01/10 00:29:45;;;;;;;10.25;3.17;;;;;;;3.55;100.00;101134.47;5067544;28;20032;-64
2023/01/10 00:32:11;;;;;;;15.60;3.50;;;;;;;3.52;100.00;101149.66;5067514;28;20400;-64
2023/01/10 00:34:36;;;;;;;14.40;4.10;;;;;;;3.51;100.00;101144.44;5067344;28;20410;-64
2023/01/10 00:37:01;;;;;;;13.23;3.50;;;;;;;3.52;100.00;101157.34;5067425;28;20024;-64
2023/01/10 00:39:26;;;;;;;9.73;2.90;;;;;;;3.51;100.00;101159.81;5067389;28;20077;-64
2023/01/10 00:44:36;;;;;;;12.13;3.47;;;;;;;3.48;100.00;101163.06;5067316;28;20047;-63
2023/01/10 00:47:01;;;;;;;15.53;4.23;;;;;;;3.44;100.00;101172.22;5066956;28;20025;-64
2023/01/10 00:49:26;;;;;;;6.43;3.17;;;;;;;3.42;100.00;101175.47;5067035;28;20258;-63
2023/01/10 00:51:52;;;;;;;8.43;3.97;;;;;;;3.43;100.00;101164.44;5067197;28;20025;-64
2023/01/10 00:54:17;;;;;;;14.07;4.00;;;;;;;3.41;100.00;101159.22;5067238;28;20039;-64
2023/01/10 00:56:42;;;;;;;12.43;3.37;;;;;;;3.38;100.00;101170.94;5067588;28;20035;-64
2023/01/10 00:59:08;;;;;;;17.53;3.83;;;;;;;3.34;100.00;101160.47;5066787;28;20029;-64
2023/01/10 01:01:33;;;;;;;12.40;4.00;;;;;;;3.32;100.00;101166.28;5067375;28;20021;-64
2023/01/10 01:03:59;;;;;;;13.10;3.57;;;;;;;3.31;100.00;101170.50;5067354;28;20016;-64
2023/01/10 01:06:25;;;;;;;7.87;3.30;;;;;;;3.31;100.00;101180.75;5067323;28;20108;-63
2023/01/10 01:08:50;;;;;;;10.73;3.27;;;;;;;3.31;100.00;101183.31;5066609;28;20021;-64
2023/01/10 01:11:16;;;;;;;14.27;4.87;;;;;;;3.33;100.00;101181.75;5066848;28;20299;-64
2023/01/10 01:13:41;;;;;;;13.17;3.53;;;;;;;3.36;100.00;101191.31;5066745;28;20032;-64
2023/01/10 01:16:06;;;;;;;12.37;3.57;;;;;;;3.38;100.00;101189.75;5067106;28;20381;-63
2023/01/10 01:18:32;;;;;;;10.07;4.40;;;;;;;3.39;100.00;101204.34;5066841;28;20077;-64
2023/01/10 01:21:02;;;;;;;10.40;3.08;;;;;;;3.42;100.00;101201.09;5067068;28;20052;-63
2023/01/10 01:23:29;;;;;;;8.97;3.33;;;;;;;3.42;100.00;101204.53;5066461;28;20472;-64
2023/01/10 01:25:55;;;;;;;11.80;3.17;;;;;;;3.42;100.00;101203.66;5066861;28;20036;-63
2023/01/10 01:28:21;;;;;;;13.23;4.90;;;;;;;3.42;100.00;101206.22;5066764;28;20097;-64
2023/01/10 01:30:46;;;;;;;15.27;5.83;;;;;;;3.42;100.00;101219.03;5066744;28;20020;-63
2023/01/10 01:33:12;;;;;;;15.23;5.60;;;;;;;3.41;100.00;101222.38;5066344;28;20028;-64
2023/01/10 01:35:41;;;;;;;17.43;6.60;;;;;;;3.40;100.00;101221.47;5066536;28;20021;-64
2023/01/10 01:38:06;;;;;;;16.50;6.70;;;;;;;3.39;100.00;101209.47;5070367;28;20515;-64
2023/01/10 01:40:32;;;;;;;21.07;7.37;;;;;;;3.39;100.00;101218.81;5070070;28;20036;-64
2023/01/10 01:42:57;;;;;;;17.90;7.03;;;;;;;3.38;100.00;101222.16;5070303;28;20492;-64
2023/01/10 01:45:22;;;;;;;13.57;6.20;;;;;;;3.39;100.00;101223.94;5070510;28;20024;-64
2023/01/10 01:48:13;;;;;;;16.80;7.30;;;;;;;3.40;100.00;101235.97;5070385;28;20032;-64
2023/01/10 01:50:52;;;;;;;15.68;6.20;;;;;;;3.40;100.00;101233.41;5070264;28;20036;-63
2023/01/10 01:53:27;;;;;;;13.77;6.43;;;;;;;3.42;100.00;101234.41;5070547;28;20017;-64
2023/01/10 01:55:58;;;;;;;14.07;6.47;;;;;;;3.44;100.00;101243.06;5069667;28;20028;-64
2023/01/10 01:58:35;;;;;;;14.13;5.88;;;;;;;3.46;100.00;101254.31;5070200;28;20047;-64
2023/01/10 02:01:01;;;;;;;15.50;5.67;;;;;;;3.51;100.00;101252.94;5070135;28;20020;-64
2023/01/10 02:03:28;;;;;;;18.83;5.27;;;;;;;3.54;100.00;101255.75;5070277;28;20032;-64
2023/01/10 02:05:53;;;;;;;16.87;5.40;;;;;;;3.54;100.00;101266.00;5069938;28;20461;-64
2023/01/10 02:08:19;;;;;;;14.63;4.97;;;;;;;3.55;100.00;101262.63;5069559;28;20123;-64
2023/01/10 02:11:08;;;;;;;17.43;4.53;;;;;;;3.55;100.00;101252.38;5070055;28;20086;-64
2023/01/10 02:13:38;;;;;;;12.60;4.70;;;;;;;3.55;100.00;101266.84;5069816;28;20471;-64
2023/01/10 02:16:04;;;;;;;16.75;4.97;;;;;;;3.57;100.00;101263.63;5069374;28;20032;-64
2023/01/10 02:18:30;;;;;;;12.50;4.67;;;;;;;3.56;100.00;101259.28;5069609;28;20031;-64
2023/01/10 02:21:20;;;;;;;15.67;4.40;;;;;;;3.57;100.00;101263.63;5069704;28;20032;-64
2023/01/10 02:24:16;;;;;;;13.45;3.80;;;;;;;3.58;100.00;101264.53;5069649;28;20440;-64
2023/01/10 02:26:53;;;;;;;15.23;4.10;;;;;;;3.58;100.00;101261.97;5068263;28;20080;-64
2023/01/10 02:29:21;;;;;;;11.37;3.27;;;;;;;3.57;100.00;101261.06;5069349;28;20064;-64
2023/01/10 02:31:58;;;;;;;15.07;4.30;;;;;;;3.56;100.00;101264.41;5069625;28;20031;-64
2023/01/10 02:34:45;;;;;;;14.63;3.97;;;;;;;3.56;100.00;101263.53;5069801;28;20085;-64
2023/01/10 02:37:26;;;;;;;16.20;4.20;;;;;;;3.56;100.00;101264.41;5069441;28;20508;-64
2023/01/10 02:40:03;;;;;;;11.13;3.70;;;;;;;3.53;100.00;101269.31;5069465;28;20021;-64
2023/01/10 02:42:38;;;;;;;13.93;3.47;;;;;;;3.56;100.00;101268.66;5068902;28;20060;-64
2023/01/10 02:45:18;;;;;;;10.70;3.87;;;;;;;3.57;100.00;101270.41;5069301;28;20374;-65
2023/01/10 02:47:43;;;;;;;14.47;3.80;;;;;;;3.58;100.00;101267.97;5069167;28;20024;-64
2023/01/10 02:50:29;;;;;;;11.97;3.90;;;;;;;3.60;100.00;101271.50;5069033;28;20048;-65
2023/01/10 02:53:03;;;;;;;12.55;3.13;;;;;;;3.60;100.00;101273.19;5069200;28;20124;-65
2023/01/10 02:55:41;;;;;;;12.63;3.17;;;;;;;3.60;100.00;101279.22;5068681;28;20108;-64
2023/01/10 02:58:33;;;;;;;10.73;2.90;;;;;;;3.57;100.00;101281.56;5069064;28;20430;-65
2023/01/10 03:01:36;;;;;;;13.40;3.67;;;;;;;3.56;100.00;101281.47;5068936;28;20418;-64
2023/01/10 03:04:20;;;;;;;12.47;3.10;;;;;;;3.54;100.00;101289.06;5068381;28;20028;-64
2023/01/10 03:06:58;;;;;;;14.40;3.40;;;;;;;3.50;100.00;101294.75;5069502;28;20090;-64
2023/01/10 03:09:32;;;;;;;13.30;3.40;;;;;;;3.46;100.00;101297.88;5068762;28;20480;-65
2023/01/10 03:12:17;;;;;;;11.20;2.90;;;;;;;3.44;100.00;101296.88;5068695;28;20016;-65
2023/01/10 03:14:45;;;;;;;11.53;3.50;;;;;;;3.42;100.00;101303.59;5068549;28;20094;-65
2023/01/10 03:17:12;;;;;;;17.27;3.57;;;;;;;3.37;100.00;101318.63;5068414;28;20210;-65
2023/01/10 03:19:43;;;;;;;12.00;3.27;;;;;;;3.35;100.00;101318.53;5068431;28;20032;-65
2023/01/10 03:22:10;;;;;;;12.57;3.10;;;;;;;3.35;100.00;101326.22;5068701;28;20392;-65
2023/01/10 03:24:41;;;;;;;10.00;2.93;;;;;;;3.33;100.00;101343.16;5068322;28;20052;-64
2023/01/10 03:27:18;;;;;;;16.25;3.28;;;;;;;3.34;100.00;101337.25;5068796;28;20039;-65
2023/01/10 03:30:07;;;;;;;10.90;3.17;;;;;;;3.34;100.00;101344.94;5068116;28;20173;-64
2023/01/10 03:32:33;;;;;;;15.53;3.50;;;;;;;3.38;100.00;101334.91;5068243;28;20037;-64
2023/01/10 03:35:00;;;;;;;13.93;3.45;;;;;;;3.43;100.00;101333.56;5068199;28;20063;-65
2023/01/10 03:37:43;;;;;;;14.63;3.57;;;;;;;3.44;100.00;101346.47;5068358;28;20032;-65
2023/01/10 03:40:21;;;;;;;15.87;3.77;;;;;;;3.47;100.00;101345.81;5067814;28;20024;-65
2023/01/10 03:46:03;;;;;;;10.88;3.30;;;;;;;3.47;100.00;101345.81;5068248;28;20569;-64
2023/01/10 03:48:35;;;;;;;12.50;3.30;;;;;;;3.49;100.00;101349.34;5068037;28;20024;-65
2023/01/10 03:51:02;;;;;;;10.85;3.00;;;;;;;3.50;100.00;101355.34;5067540;28;20516;-65
2023/01/10 03:53:28;;;;;;;15.38;2.95;;;;;;;3.53;100.00;101361.59;5067523;28;20024;-65
2023/01/10 03:55:53;;;;;;;14.87;3.10;;;;;;;3.52;100.00;101367.50;5068065;28;20396;-64
2023/01/10 03:58:20;;;;;;;14.02;3.72;;;;;;;3.53;100.00;101370.94;5067373;28;20095;-64
2023/01/10 04:00:47;;;;;;;17.37;3.83;;;;;;;3.55;100.00;101369.38;5067848;28;20047;-65
2023/01/10 04:03:12;;;;;;;11.77;3.20;;;;;;;3.55;100.00;101375.41;5067684;28;20396;-64
2023/01/10 04:05:37;;;;;;;12.37;3.10;;;;;;;3.56;100.00;101374.59;5067552;28;20028;-64
2023/01/10 04:08:03;;;;;;;12.23;3.03;;;;;;;3.56;100.00;101377.16;5067717;28;20043;-65
2023/01/10 04:10:28;;;;;;;10.47;2.90;;;;;;;3.59;100.00;101386.75;5067023;28;20036;-65
2023/01/10 04:12:57;;;;;;;16.17;3.40;;;;;;;3.59;100.00;101386.75;5067534;28;20035;-64
2023/01/10 04:15:23;;;;;;;9.17;3.13;;;;;;;3.59;100.00;101387.66;5067416;28;20127;-65
2023/01/10 04:17:48;;;;;;;13.27;3.80;;;;;;;3.59;100.00;101387.66;5067305;28;20536;-65
2023/01/10 04:20:13;;;;;;;13.23;2.77;;;;;;;3.59;100.00;101387.66;5067537;28;20028;-65
2023/01/10 04:22:39;;;;;;;17.00;3.17;;;;;;;3.59;100.00;101390.22;5067563;28;20032;-65
2023/01/10 04:25:04;;;;;;;11.77;2.90;;;;;;;3.59;100.00;101404.69;5066979;28;20033;-65
2023/01/10 04:27:30;;;;;;;19.00;4.70;;;;;;;3.57;100.00;101407.16;5067198;28;20038;-65
2023/01/10 04:29:55;;;;;;;11.63;2.63;;;;;;;3.55;100.00;101406.16;5067299;28;20385;-64
2023/01/10 04:32:20;;;;;;;11.63;2.93;;;;;;;3.55;100.00;101411.28;5067446;28;20031;-65
2023/01/10 04:34:45;;;;;;;12.70;2.87;;;;;;;3.56;100.00;101404.50;5067151;28;20025;-65
2023/01/10 04:37:11;;;;;;;13.93;3.07;;;;;;;3.54;100.00;101404.41;5066999;28;20112;-65
2023/01/10 04:39:36;;;;;;;17.23;3.57;;;;;;;3.53;100.00;101397.47;5067059;28;20388;-64
2023/01/10 04:42:01;;;;;;;20.13;3.80;;;;;;;3.54;100.00;101394.16;5067142;28;20471;-64
2023/01/10 04:44:27;;;;;;;14.77;3.23;;;;;;;3.52;100.00;101384.56;5066696;28;20034;-64
2023/01/10 04:46:52;;;;;;;12.95;3.40;;;;;;;3.52;100.00;101395.69;5067148;28;20086;-64
2023/01/10 04:49:17;;;;;;;12.97;3.33;;;;;;;3.51;100.00;101393.91;5067097;28;20232;-64
2023/01/10 04:51:42;;;;;;;16.40;3.23;;;;;;;3.51;100.00;101393.91;5066554;28;20404;-65
2023/01/10 04:54:08;;;;;;;18.53;4.37;;;;;;;3.52;100.00;101405.97;5066859;28;20036;-64
2023/01/10 04:56:33;;;;;;;15.63;3.37;;;;;;;3.52;100.00;101408.53;5066899;28;20032;-65
2023/01/10 04:58:58;;;;;;;16.17;3.53;;;;;;;3.52;100.00;101415.31;5067077;28;20029;-64
2023/01/10 05:01:24;;;;;;;20.23;3.60;;;;;;;3.52;100.00;101411.09;5067316;28;20068;-65
2023/01/10 05:03:51;;;;;;;14.07;3.17;;;;;;;3.52;100.00;101411.09;5066494;28;20032;-64
2023/01/10 05:06:18;;;;;;;14.33;3.23;;;;;;;3.59;100.00;101404.69;5067005;28;20036;-64
2023/01/10 05:08:43;;;;;;;18.07;4.17;;;;;;;3.60;100.00;101407.38;5067167;28;20078;-65
2023/01/10 05:11:09;;;;;;;14.93;3.67;;;;;;;3.61;100.00;101410.84;5067411;28;20036;-65
2023/01/10 05:13:34;;;;;;;15.77;3.23;;;;;;;3.62;100.00;101419.41;5071626;28;20455;-65
2023/01/10 05:16:00;;;;;;;13.50;3.90;;;;;;;3.62;100.00;101429.69;5070955;28;20396;-64
2023/01/10 05:18:27;;;;;;;15.63;3.40;;;;;;;3.62;100.00;101432.25;5070170;28;20020;-64
2023/01/10 05:20:52;;;;;;;16.00;3.77;;;;;;;3.63;100.00;101441.69;5070851;28;20028;-64
2023/01/10 05:23:18;;;;;;;17.43;3.30;;;;;;;3.62;100.00;101453.63;5071028;28;20044;-64
2023/01/10 05:25:43;;;;;;;17.83;3.77;;;;;;;3.63;100.00;101460.53;5069468;28;20380;-64
2023/01/10 05:28:09;;;;;;;20.53;3.40;;;;;;;3.59;100.00;101459.44;5070743;28;20067;-63
2023/01/10 05:30:34;;;;;;;18.53;3.60;;;;;;;3.61;100.00;101462.09;5071118;28;20032;-64
2023/01/10 05:33:03;;;;;;;16.80;3.13;;;;;;;3.63;100.00;101463.09;5070351;28;20475;-64
2023/01/10 05:35:28;;;;;;;18.83;4.03;;;;;;;3.67;100.00;101464.22;5070560;28;20058;-64
2023/01/10 05:37:53;;;;;;;14.23;3.63;;;;;;;3.69;100.00;101460.06;5070531;28;20025;-64
2023/01/10 05:40:19;;;;;;;16.50;3.40;;;;;;;3.71;100.00;101473.88;5070425;28;20024;-64
2023/01/10 05:42:44;;;;;;;19.00;3.33;;;;;;;3.70;100.00;101473.00;5070360;28;20032;-64
2023/01/10 05:45:10;;;;;;;16.63;3.57;;;;;;;3.72;100.00;101465.41;5069779;28;20392;-64
2023/01/10 05:47:35;;;;;;;14.60;3.83;;;;;;;3.69;100.00;101471.22;5070708;28;20059;-64
2023/01/10 05:50:00;;;;;;;18.40;3.63;;;;;;;3.71;100.00;101474.78;5070412;28;20040;-64
2023/01/10 05:52:26;;;;;;;15.73;3.30;;;;;;;3.72;100.00;101480.81;5070300;28;20099;-64
2023/01/10 05:54:51;;;;;;;14.43;3.67;;;;;;;3.72;100.00;101480.81;5070501;28;20039;-64
2023/01/10 05:57:17;;;;;;;17.97;4.00;;;;;;;3.72;100.00;101491.91;5069960;28;20388;-64
2023/01/10 05:59:43;;;;;;;15.93;3.77;;;;;;;3.72;100.00;101485.94;5070078;28;20392;-65
2023/01/10 06:02:08;;;;;;;14.00;3.53;;;;;;;3.72;100.00;101497.06;5070109;28;20043;-64
2023/01/10 06:04:34;;;;;;;15.83;3.87;;;;;;;3.71;100.00;101499.50;5070121;28;20036;-64
2023/01/10 06:06:59;;;;;;;20.43;3.93;;;;;;;3.71;100.00;101502.06;5069899;28;20484;-64
2023/01/10 06:09:24;;;;;;;15.63;3.67;;;;;;;3.72;100.00;101501.31;5069935;28;20038;-64
2023/01/10 06:11:50;;;;;;;17.47;3.67;;;;;;;3.75;100.00;101495.50;5070173;28;20032;-64
2023/01/10 06:14:18;;;;;;;19.90;3.97;;;;;;;3.77;100.00;101489.72;5069876;28;20039;-64
2023/01/10 06:16:46;;;;;;;17.33;3.73;;;;;;;3.79;100.00;101493.28;5069472;28;20016;-64
2023/01/10 06:19:12;;;;;;;23.07;5.57;;;;;;;3.79;100.00;101490.72;5069901;28;20078;-64
2023/01/10 06:21:37;;;;;;;17.90;3.77;;;;;;;3.78;100.00;101491.47;5069711;28;20032;-64
2023/01/10 06:24:02;;;;;;;21.67;4.00;;;;;;;3.78;100.00;101499.16;5069413;28;20032;-64
2023/01/10 06:26:27;;;;;;;17.67;4.87;;;;;;;3.77;100.00;101499.97;5069746;28;20039;-64
2023/01/10 06:28:53;;;;;;;19.83;3.30;;;;;;;3.76;100.00;101504.97;5069333;28;20035;-64
2023/01/10 06:31:18;;;;;;;16.77;4.37;;;;;;;3.75;100.00;101506.66;5069479;28;20028;-64
2023/01/10 06:33:43;;;;;;;15.73;3.27;;;;;;;3.76;100.00;101512.69;5069772;28;20488;-64
2023/01/10 06:36:09;;;;;;;16.97;4.03;;;;;;;3.75;100.00;101514.34;5069551;28;20028;-64
2023/01/10 06:38:34;;;;;;;20.67;4.53;;;;;;;3.73;100.00;101518.47;5069211;28;20124;-64
2023/01/10 06:41:11;;;;;;;17.30;3.40;;;;;;;3.72;100.00;101516.69;5069232;28;20017;-64
2023/01/10 06:43:40;;;;;;;17.97;3.83;;;;;;;3.72;100.00;101517.56;5069456;28;20035;-64
2023/01/10 06:46:08;;;;;;;15.93;3.90;;;;;;;3.71;100.00;101522.59;5069395;28;20025;-64
2023/01/10 06:48:37;;;;;;;17.80;3.57;;;;;;;3.69;100.00;101526.72;5068960;28;20029;-64
2023/01/10 06:51:03;;;;;;;18.53;3.70;;;;;;;3.66;100.00;101526.50;5069034;28;20045;-64
2023/01/10 06:53:29;;;;;;;19.67;4.57;;;;;;;3.66;100.00;101531.63;5068892;28;20405;-64
2023/01/10 06:55:56;;;;;;;23.90;3.60;;;;;;;3.62;100.00;101530.50;5069066;28;20032;-64
2023/01/10 06:58:21;;;;;;;17.90;3.40;;;;;;;3.58;100.00;101531.09;5069374;28;20484;-64
2023/01/10 07:00:46;;;;;;;25.00;3.70;;;;;;;3.55;100.00;101546.22;5069255;28;20048;-64
2023/01/10 07:03:11;;;;;;;15.40;3.60;;;;;;;3.50;100.00;101548.47;5068639;28;20399;-64
2023/01/10 07:05:37;;;;;;;17.90;3.87;;;;;;;3.49;100.00;101554.38;5068743;28;20055;-64
2023/01/10 07:08:02;;;;;;;18.00;4.10;;;;;;;3.44;100.00;101550.56;5068575;28;20032;-64
2023/01/10 07:10:27;;;;;;;14.40;3.80;;;;;;;3.40;100.00;101557.16;5068972;28;20432;-64
2023/01/10 07:12:57;;;;;;;20.13;4.43;;;;;;;3.37;100.00;101564.63;5068502;28;20035;-64
2023/01/10 07:15:23;;;;;;;19.63;3.90;;;;;;;3.34;100.00;101569.53;5068783;28;20032;-64
2023/01/10 07:17:49;;;;;;;21.03;3.47;;;;;;;3.31;100.00;101585.56;5068242;28;20024;-64
2023/01/10 07:20:14;;;;;;;16.63;4.20;;;;;;;3.28;100.00;101579.31;5067066;28;20499;-64
2023/01/10 07:22:39;;;;;;;20.87;3.80;;;;;;;3.27;100.00;101582.66;5066870;28;20115;-64
2023/01/10 07:25:05;;;;;;;17.83;3.80;;;;;;;3.23;100.00;101592.69;5066312;28;20410;-64
2023/01/10 07:27:31;;;;;;;18.07;4.00;;;;;;;3.21;100.00;101584.00;5066447;28;20079;-64
2023/01/10 07:29:56;;;;;;;22.00;4.00;;;;;;;3.24;100.00;101606.38;5066407;28;20525;-64
2023/01/10 07:32:22;;;;;;;20.37;4.40;;;;;;;3.22;100.00;101607.97;5066597;28;20036;-64
2023/01/10 07:34:47;;;;;;;19.67;3.27;;;;;;;3.23;100.00;101607.16;5065602;28;20023;-64
2023/01/10 07:37:12;;;;;;;16.63;3.37;;;;;;;3.21;100.00;101612.19;5066485;28;20020;-64
2023/01/10 07:39:37;;;;;;;16.50;4.17;;;;;;;3.23;100.00;101619.97;5065787;28;20024;-64
2023/01/10 07:42:03;;;;;;;25.70;5.07;;;;;;;3.22;100.00;101621.63;5066503;28;20083;-64
2023/01/10 07:44:28;;;;;;;18.40;3.73;;;;;;;3.22;100.00;101629.31;5067835;28;20032;-64
2023/01/10 07:46:53;;;;;;;25.03;4.70;;;;;;;3.23;100.00;101638.81;5067677;28;20392;-64
2023/01/10 07:49:19;;;;;;;15.97;3.50;;;;;;;3.23;100.00;101626.00;5067930;28;20024;-64
2023/01/10 07:51:44;;;;;;;15.53;4.00;;;;;;;3.22;100.00;101631.88;5067723;28;20507;-64
2023/01/10 07:54:09;;;;;;;16.93;4.30;;;;;;;3.24;100.00;101639.69;5068068;28;20020;-64
2023/01/10 07:56:35;;;;;;;22.03;4.07;;;;;;;3.22;100.00;101641.25;5068213;28;20025;-64
2023/01/10 07:59:00;;;;;;;17.13;3.77;;;;;;;3.20;100.00;101642.81;5067693;28;20025;-64
2023/01/10 08:01:25;;;;;;;14.27;3.13;;;;;;;3.21;100.00;101642.03;5067856;28;20508;-64
2023/01/10 08:03:51;;;;;;;14.83;5.27;;;;;;;3.22;100.00;101638.69;5067992;28;20029;-65
2023/01/10 08:06:16;;;;;;;23.63;4.00;;;;;;;3.21;100.00;101634.34;5067837;28;20085;-65
2023/01/10 08:08:41;;;;;;;18.93;4.10;;;;;;;3.21;100.00;101634.34;5067748;28;20032;-65
2023/01/10 08:11:07;;;;;;;16.97;3.87;;;;;;;3.21;100.00;101640.38;5067680;28;20024;-65
2023/01/10 08:13:32;;;;;;;17.67;4.00;;;;;;;3.24;100.00;101639.69;5067336;28;20054;-65
2023/01/10 08:15:58;;;;;;;16.87;3.50;;;;;;;3.28;100.00;101645.94;5067797;28;20032;-65
2023/01/10 08:18:23;;;;;;;21.20;4.43;;;;;;;3.22;100.00;101639.56;5067693;28;20211;-65
2023/01/10 08:20:51;;;;;;;19.57;4.73;;;;;;;3.21;100.00;101634.34;5067395;28;20107;-64
2023/01/10 08:23:17;;;;;;;22.17;4.53;;;;;;;3.16;100.00;101645.91;5067443;28;20016;-64
2023/01/10 08:25:42;;;;;;;15.43;4.37;;;;;;;3.16;100.00;101636.56;5067359;28;20491;-65
2023/01/10 08:28:08;;;;;;;17.83;4.33;;;;;;;3.20;100.00;101647.94;5067387;28;20481;-65
2023/01/10 08:30:33;;;;;;;21.73;4.90;;;;;;;3.16;100.00;101636.56;5067762;28;20024;-65
2023/01/10 08:33:02;;;;;;;17.97;3.83;;;;;;;3.20;100.00;101643.69;5067221;28;20016;-65
2023/01/10 08:35:28;;;;;;;20.07;4.03;;;;;;;3.20;100.00;101647.94;5067071;28;20028;-65
2023/01/10 08:37:57;;;;;;;19.33;4.33;;;;;;;3.22;100.00;101651.50;5067451;28;20026;-65
2023/01/10 08:40:23;;;;;;;15.83;3.60;;;;;;;3.24;100.00;101645.72;5067808;28;20021;-65
2023/01/10 08:42:56;;;;;;;14.60;4.17;;;;;;;3.26;100.00;101648.38;5067557;28;20386;-65
2023/01/10 08:45:21;;;;;;;20.03;3.57;;;;;;;3.31;100.00;101641.94;5066947;28;20077;-65
2023/01/10 08:47:46;;;;;;;18.07;4.43;;;;;;;3.35;100.00;101643.03;5067077;28;20032;-65
2023/01/10 08:50:12;;;;;;;16.90;3.57;;;;;;;3.38;100.00;101642.41;5067200;28;20492;-65
2023/01/10 08:52:38;;;;;;;14.73;3.63;;;;;;;3.39;100.00;101633.91;5066995;28;20025;-65
2023/01/10 08:55:03;;;;;;;15.27;3.83;;;;;;;3.44;100.00;101638.63;5067529;28;20037;-65
2023/01/10 08:57:28;;;;;;;15.47;3.73;;;;;;;3.48;100.00;101637.16;5066944;28;20034;-65
2023/01/10 08:59:54;;;;;;;22.67;4.57;;;;;;;3.54;100.00;101629.94;5067485;28;20365;-65
2023/01/10 09:02:19;;;;;;;18.10;3.13;;;;;;;3.58;100.00;101629.38;5067110;28;20029;-65
2023/01/10 09:04:45;;;;;;;17.20;3.37;;;;;;;3.62;100.00;101629.63;5066815;28;20514;-65
2023/01/10 09:07:10;;;;;;;15.63;3.43;;;;;;;3.63;100.00;101631.38;5067295;28;20029;-65
2023/01/10 09:09:36;;;;;;;19.17;3.70;;;;;;;3.65;100.00;101622.16;5067221;28;20027;-65
2023/01/10 09:12:02;;;;;;;22.33;4.13;;;;;;;3.65;100.00;101633.28;5067078;28;20086;-65
2023/01/10 09:14:46;;;;;;;15.43;4.17;;;;;;;3.67;100.00;101618.91;5066807;28;20037;-65
2023/01/10 09:17:11;;;;;;;15.73;3.47;;;;;;;3.67;100.00;101624.03;5066296;28;20028;-65
2023/01/10 09:19:36;;;;;;;17.43;3.53;;;;;;;3.68;100.00;101622.34;5066947;28;20033;-65
2023/01/10 09:22:02;;;;;;;16.87;3.17;;;;;;;3.72;100.00;101634.63;5067014;28;20396;-65
2023/01/10 09:24:27;;;;;;;15.90;3.73;;;;;;;3.70;100.00;101620.81;5066794;28;20025;-65
2023/01/10 09:26:52;;;;;;;12.90;3.58;;;;;;;3.68;100.00;101614.66;5066930;28;20024;-66
2023/01/10 09:29:18;;;;;;;17.03;3.73;;;;;;;3.70;100.00;101623.38;5066468;28;20445;-65
2023/01/10 09:31:43;;;;;;;18.73;3.43;;;;;;;3.70;100.00;101615.69;5066190;28;20020;-65
2023/01/10 09:34:08;;;;;;;13.80;3.83;;;;;;;3.69;100.00;101619.91;5067006;28;20480;-64
2023/01/10 09:36:34;;;;;;;13.05;3.30;;;;;;;3.70;100.00;101621.72;5067009;28;20017;-65
2023/01/10 09:38:59;;;;;;;20.70;3.63;;;;;;;3.70;100.00;101621.72;5066762;28;20366;-65
2023/01/10 09:42:02;;;;;;;16.00;3.10;;;;;;;3.75;100.00;101618.56;5066408;28;20012;-65
2023/01/10 09:44:47;;;;;;;15.43;3.63;;;;;;;3.77;100.00;101628.16;5067457;28;20526;-65
2023/01/10 09:47:19;;;;;;;14.93;3.40;;;;;;;3.79;100.00;101625.69;5059295;28;20071;-65
2023/01/10 09:50:23;;;;;;;17.80;3.60;;;;;;;3.83;100.00;101628.59;5066803;28;20466;-65
2023/01/10 09:53:26;;;;;;;17.00;3.53;;;;;;;3.88;100.00;101620.34;5066586;28;20025;-65
2023/01/10 09:55:55;;;;;;;15.83;3.40;;;;;;;3.92;100.00;101627.50;5024066;28;20029;-65
2023/01/10 09:58:28;;;;;;;14.03;3.40;;;;;;;4.00;100.00;101610.97;5061934;28;20052;-65
2023/01/10 10:00:57;;;;;;;14.27;3.90;;;;;;;4.00;100.00;101615.19;5070411;28;20482;-65
2023/01/10 10:03:42;;;;;;;23.53;3.77;;;;;;;4.04;100.00;101610.41;5069896;28;20071;-65
2023/01/10 10:06:12;;;;;;;15.40;4.07;;;;;;;4.09;100.00;101615.84;5070511;28;20038;-65
2023/01/10 10:08:39;;;;;;;22.23;4.47;;;;;;;4.13;100.00;101622.09;5070353;28;20377;-65
2023/01/10 10:11:26;;;;;;;15.87;3.70;;;;;;;4.18;100.00;101631.00;5070222;28;20442;-65
2023/01/10 10:14:02;;;;;;;14.77;3.13;;;;;;;4.21;100.00;101631.22;5069927;28;20020;-65
2023/01/10 10:16:49;;;;;;;18.20;3.07;;;;;;;4.28;100.00;101607.78;5069214;28;20040;-65
2023/01/10 10:19:50;;;;;;;15.93;3.83;;;;;;;4.34;100.00;101607.31;5070333;28;20028;-65
2023/01/10 10:22:37;;;;;;;18.90;3.47;;;;;;;4.38;100.00;101600.72;5032255;28;20049;-65
2023/01/10 10:25:31;;;;;;;18.17;3.43;;;;;;;4.40;100.00;101596.59;5069814;28;20298;-65
2023/01/10 10:28:30;;;;;;;16.30;3.70;;;;;;;4.44;100.00;101594.34;5070172;28;20107;-65
2023/01/10 10:31:02;;;;;;;23.00;3.53;;;;;;;4.46;100.00;101594.47;5055132;28;20036;-65
2023/01/10 10:33:42;;;;;;;14.43;3.23;;;;;;;4.50;100.00;101592.97;5069528;28;20024;-65
2023/01/10 10:36:29;;;;;;;10.17;2.67;;;;;;;4.55;100.00;101589.94;5069634;28;20028;-65
2023/01/10 10:38:58;;;;;;;13.30;3.10;;;;;;;4.59;100.00;101587.59;5069430;28;20423;-65
2023/01/10 10:41:34;;;;;;;11.50;2.87;;;;;;;4.62;100.00;101585.25;5069104;28;20020;-65
2023/01/10 10:44:05;;;;;;;12.10;3.33;;;;;;;4.62;100.00;101572.41;5067348;28;20450;-65
2023/01/10 10:46:31;;;;;;;;;;;;;;;4.63;100.00;101574.19;5069658;28;20111;-65
2023/01/10 10:49:07;;;;;;;19.67;3.07;;;;;;;4.66;100.00;101565.00;5069374;28;20010;-65
2023/01/10 10:51:46;;;;;;;19.50;3.97;;;;;;;4.69;100.00;101559.19;5069003;28;20049;-65
2023/01/10 10:54:13;;;;;;;10.75;2.72;;;;;;;4.73;100.00;101565.44;5068759;28;20093;-65
2023/01/10 10:56:39;;;;;;;18.07;3.40;;;;;;;4.73;100.00;101555.16;5069515;28;20025;-65
2023/01/10 10:59:05;;;;;;;15.85;3.97;;;;;;;4.79;100.00;101560.69;5068758;28;20431;-65
2023/01/10 11:01:31;;;;;;;17.38;3.63;;;;;;;4.85;100.00;101549.94;5068586;28;20296;-65
2023/01/10 11:04:11;;;;;;;11.27;2.88;;;;;;;4.87;100.00;101543.25;5069412;28;20035;-65
2023/01/10 11:06:39;;;;;;;18.37;4.00;;;;;;;4.90;100.00;101544.34;5069076;28;20481;-65
2023/01/10 11:09:06;;;;;;;13.77;3.10;;;;;;;4.95;100.00;101539.50;5069211;28;20282;-65
2023/01/10 11:11:34;;;;;;;13.25;3.92;;;;;;;4.98;100.00;101536.25;5068723;28;20035;-65
2023/01/10 11:14:06;;;;;;;12.70;3.78;;;;;;;5.02;100.00;101533.97;5068381;28;20484;-65
2023/01/10 11:16:35;;;;;;;16.67;3.90;;;;;;;5.04;100.00;101527.25;5068818;28;20029;-64
2023/01/10 11:19:21;;;;;;;11.93;2.92;;;;;;;5.07;100.00;101523.13;5068677;28;20063;-65
2023/01/10 11:21:52;;;;;;;17.95;4.10;;;;;;;5.12;100.00;101522.63;5068921;28;20013;-65
2023/01/10 11:24:22;;;;;;;15.60;3.45;;;;;;;5.15;100.00;101524.50;5068577;28;20067;-64
2023/01/10 11:26:48;;;;;;;12.75;3.08;;;;;;;5.15;100.00;101517.69;5068499;28;20036;-65
2023/01/10 11:29:20;;;;;;;13.32;3.38;;;;;;;5.19;100.00;101516.22;5068441;28;20020;-65
2023/01/10 11:31:47;;;;;;;18.02;5.03;;;;;;;5.24;100.00;101519.06;5068605;28;20473;-64
2023/01/10 11:34:31;;;;;;;16.63;3.22;;;;;;;5.24;100.00;101521.63;5068543;28;20040;-65